sensor_id;sensor_type;location;lat;lon;timestamp;P1;durP1;ratioP1;P2;durP2;ratioP2
20334;SDS011;10325;51.468;5.804;2022-07-03T00:00:10;3.50;;;1.77;;
20334;SDS011;10325;51.468;5.804;2022-07-03T00:02:54;2.60;;;1.57;;
20334;SDS011;10325;51.468;5.804;2022-07-03T00:05:27;3.80;;;2.00;;
20334;SDS011;10325;51.468;5.804;2022-07-03T00:07:59;7.13;;;1.87;;
20334;SDS011;10325;51.468;5.804;2022-07-03T00:10:29;3.83;;;1.80;;
20334;SDS011;10325;51.468;5.804;2022-07-03T00:13:01;3.73;;;1.80;;
20334;SDS011;10325;51.468;5.804;2022-07-03T00:15:30;3.37;;;1.73;;
20334;SDS011;10325;51.468;5.804;2022-07-03T00:18:04;2.63;;;1.83;;
20334;SDS011;10325;51.468;5.804;2022-07-03T00:20:35;3.67;;;1.63;;
20334;SDS011;10325;51.468;5.804;2022-07-03T00:23:12;3.80;;;1.80;;
20334;SDS011;10325;51.468;5.804;2022-07-03T00:25:41;3.80;;;1.73;;
20334;SDS011;10325;51.468;5.804;2022-07-03T00:28:14;3.47;;;1.63;;
20334;SDS011;10325;51.468;5.804;2022-07-03T00:30:48;1.87;;;1.67;;
20334;SDS011;10325;51.468;5.804;2022-07-03T00:33:23;2.63;;;1.77;;
20334;SDS011;10325;51.468;5.804;2022-07-03T00:35:57;4.43;;;1.50;;
20334;SDS011;10325;51.468;5.804;2022-07-03T00:38:27;2.73;;;1.73;;
20334;SDS011;10325;51.468;5.804;2022-07-03T00:41:03;3.03;;;1.80;;
20334;SDS011;10325;51.468;5.804;2022-07-03T00:43:34;2.60;;;1.50;;
20334;SDS011;10325;51.468;5.804;2022-07-03T00:46:09;3.53;;;1.60;;
20334;SDS011;10325;51.468;5.804;2022-07-03T00:48:45;2.13;;;1.50;;
20334;SDS011;10325;51.468;5.804;2022-07-03T00:51:15;3.17;;;1.73;;
20334;SDS011;10325;51.468;5.804;2022-07-03T00:53:57;4.37;;;1.60;;
20334;SDS011;10325;51.468;5.804;2022-07-03T00:56:29;2.37;;;1.60;;
20334;SDS011;10325;51.468;5.804;2022-07-03T00:59:00;3.10;;;1.50;;
20334;SDS011;10325;51.468;5.804;2022-07-03T01:01:30;3.97;;;1.87;;
20334;SDS011;10325;51.468;5.804;2022-07-03T01:04:08;1.67;;;1.57;;
20334;SDS011;10325;51.468;5.804;2022-07-03T01:06:49;2.10;;;1.50;;
20334;SDS011;10325;51.468;5.804;2022-07-03T01:09:24;4.13;;;1.63;;
20334;SDS011;10325;51.468;5.804;2022-07-03T01:12:15;3.30;;;1.80;;
20334;SDS011;10325;51.468;5.804;2022-07-03T01:20:26;1.57;;;1.27;;
20334;SDS011;10325;51.468;5.804;2022-07-03T01:23:01;2.83;;;1.73;;
20334;SDS011;10325;51.468;5.804;2022-07-03T01:25:44;3.63;;;1.53;;
20334;SDS011;10325;51.468;5.804;2022-07-03T01:28:20;3.30;;;1.50;;
20334;SDS011;10325;51.468;5.804;2022-07-03T01:30:53;1.87;;;1.20;;
20334;SDS011;10325;51.468;5.804;2022-07-03T01:33:32;2.30;;;1.27;;
20334;SDS011;10325;51.468;5.804;2022-07-03T01:36:09;2.03;;;1.47;;
20334;SDS011;10325;51.468;5.804;2022-07-03T01:38:45;2.37;;;1.70;;
20334;SDS011;10325;51.468;5.804;2022-07-03T01:41:26;3.07;;;1.30;;
20334;SDS011;10325;51.468;5.804;2022-07-03T01:44:03;2.43;;;1.50;;
20334;SDS011;10325;51.468;5.804;2022-07-03T01:46:32;2.50;;;1.50;;
20334;SDS011;10325;51.468;5.804;2022-07-03T01:49:03;1.97;;;1.40;;
20334;SDS011;10325;51.468;5.804;2022-07-03T01:51:39;2.70;;;1.40;;
20334;SDS011;10325;51.468;5.804;2022-07-03T01:54:27;2.40;;;1.47;;
20334;SDS011;10325;51.468;5.804;2022-07-03T01:57:02;1.80;;;1.63;;
20334;SDS011;10325;51.468;5.804;2022-07-03T01:59:43;1.23;;;1.13;;
20334;SDS011;10325;51.468;5.804;2022-07-03T02:02:33;1.53;;;1.40;;
20334;SDS011;10325;51.468;5.804;2022-07-03T02:05:10;2.67;;;1.43;;
20334;SDS011;10325;51.468;5.804;2022-07-03T02:07:53;2.57;;;1.40;;
20334;SDS011;10325;51.468;5.804;2022-07-03T02:10:29;2.40;;;1.47;;
20334;SDS011;10325;51.468;5.804;2022-07-03T02:13:06;1.63;;;1.20;;
20334;SDS011;10325;51.468;5.804;2022-07-03T02:15:44;1.33;;;1.20;;
20334;SDS011;10325;51.468;5.804;2022-07-03T02:21:13;1.90;;;1.70;;
20334;SDS011;10325;51.468;5.804;2022-07-03T02:26:39;47.10;;;12.33;;
20334;SDS011;10325;51.468;5.804;2022-07-03T02:29:12;45.10;;;11.83;;
20334;SDS011;10325;51.468;5.804;2022-07-03T02:31:48;52.57;;;13.93;;
20334;SDS011;10325;51.468;5.804;2022-07-03T02:34:23;37.33;;;10.90;;
20334;SDS011;10325;51.468;5.804;2022-07-03T02:36:55;35.50;;;10.33;;
20334;SDS011;10325;51.468;5.804;2022-07-03T02:39:29;33.40;;;9.93;;
20334;SDS011;10325;51.468;5.804;2022-07-03T02:42:04;26.77;;;9.37;;
20334;SDS011;10325;51.468;5.804;2022-07-03T02:44:45;24.87;;;8.07;;
20334;SDS011;10325;51.468;5.804;2022-07-03T02:47:43;25.20;;;9.07;;
20334;SDS011;10325;51.468;5.804;2022-07-03T02:50:20;17.27;;;6.97;;
20334;SDS011;10325;51.468;5.804;2022-07-03T02:52:57;17.77;;;6.93;;
20334;SDS011;10325;51.468;5.804;2022-07-03T02:55:45;21.43;;;6.57;;
20334;SDS011;10325;51.468;5.804;2022-07-03T03:00:52;13.67;;;5.47;;
20334;SDS011;10325;51.468;5.804;2022-07-03T03:03:23;14.70;;;5.53;;
20334;SDS011;10325;51.468;5.804;2022-07-03T03:06:00;15.07;;;6.17;;
20334;SDS011;10325;51.468;5.804;2022-07-03T03:11:22;10.37;;;4.37;;
20334;SDS011;10325;51.468;5.804;2022-07-03T03:13:56;12.53;;;4.63;;
20334;SDS011;10325;51.468;5.804;2022-07-03T03:16:29;12.07;;;4.73;;
20334;SDS011;10325;51.468;5.804;2022-07-03T03:19:00;12.23;;;4.63;;
20334;SDS011;10325;51.468;5.804;2022-07-03T03:21:28;7.67;;;4.50;;
20334;SDS011;10325;51.468;5.804;2022-07-03T03:24:03;7.63;;;3.80;;
20334;SDS011;10325;51.468;5.804;2022-07-03T03:26:34;12.10;;;4.27;;
20334;SDS011;10325;51.468;5.804;2022-07-03T03:29:05;6.93;;;3.70;;
20334;SDS011;10325;51.468;5.804;2022-07-03T03:31:36;5.33;;;3.50;;
20334;SDS011;10325;51.468;5.804;2022-07-03T03:34:10;6.67;;;3.67;;
20334;SDS011;10325;51.468;5.804;2022-07-03T03:36:39;5.87;;;3.23;;
20334;SDS011;10325;51.468;5.804;2022-07-03T03:39:14;6.00;;;3.43;;
20334;SDS011;10325;51.468;5.804;2022-07-03T03:41:43;6.00;;;3.03;;
20334;SDS011;10325;51.468;5.804;2022-07-03T03:44:15;5.30;;;3.00;;
20334;SDS011;10325;51.468;5.804;2022-07-03T03:46:47;3.67;;;2.80;;
20334;SDS011;10325;51.468;5.804;2022-07-03T03:49:29;4.30;;;3.20;;
20334;SDS011;10325;51.468;5.804;2022-07-03T03:52:00;7.00;;;2.83;;
20334;SDS011;10325;51.468;5.804;2022-07-03T03:54:29;4.03;;;2.80;;
20334;SDS011;10325;51.468;5.804;2022-07-03T03:57:16;3.77;;;3.03;;
20334;SDS011;10325;51.468;5.804;2022-07-03T03:59:48;5.53;;;2.70;;
20334;SDS011;10325;51.468;5.804;2022-07-03T04:02:19;4.23;;;2.37;;
20334;SDS011;10325;51.468;5.804;2022-07-03T04:04:56;4.73;;;2.40;;
20334;SDS011;10325;51.468;5.804;2022-07-03T04:07:33;5.10;;;2.30;;
20334;SDS011;10325;51.468;5.804;2022-07-03T04:10:03;4.43;;;2.40;;
20334;SDS011;10325;51.468;5.804;2022-07-03T04:12:33;2.47;;;2.20;;
20334;SDS011;10325;51.468;5.804;2022-07-03T04:15:04;3.53;;;2.43;;
20334;SDS011;10325;51.468;5.804;2022-07-03T04:17:33;3.80;;;1.97;;
20334;SDS011;10325;51.468;5.804;2022-07-03T04:20:02;3.30;;;1.93;;
20334;SDS011;10325;51.468;5.804;2022-07-03T04:22:32;2.53;;;1.97;;
20334;SDS011;10325;51.468;5.804;2022-07-03T04:25:05;3.70;;;1.80;;
20334;SDS011;10325;51.468;5.804;2022-07-03T04:27:36;4.30;;;2.27;;
20334;SDS011;10325;51.468;5.804;2022-07-03T04:30:28;3.73;;;2.07;;
20334;SDS011;10325;51.468;5.804;2022-07-03T04:32:59;8.43;;;1.60;;
20334;SDS011;10325;51.468;5.804;2022-07-03T04:35:31;2.97;;;1.60;;
20334;SDS011;10325;51.468;5.804;2022-07-03T04:38:02;2.60;;;1.60;;
20334;SDS011;10325;51.468;5.804;2022-07-03T04:40:32;4.37;;;1.90;;
20334;SDS011;10325;51.468;5.804;2022-07-03T04:43:04;1.97;;;1.60;;
20334;SDS011;10325;51.468;5.804;2022-07-03T04:45:34;4.53;;;1.70;;
20334;SDS011;10325;51.468;5.804;2022-07-03T04:48:05;2.83;;;1.67;;
20334;SDS011;10325;51.468;5.804;2022-07-03T04:50:39;3.90;;;1.50;;
20334;SDS011;10325;51.468;5.804;2022-07-03T04:53:07;4.07;;;1.70;;
20334;SDS011;10325;51.468;5.804;2022-07-03T04:55:37;2.00;;;1.63;;
20334;SDS011;10325;51.468;5.804;2022-07-03T04:58:08;2.43;;;1.77;;
20334;SDS011;10325;51.468;5.804;2022-07-03T05:00:37;1.87;;;1.60;;
20334;SDS011;10325;51.468;5.804;2022-07-03T05:03:10;2.23;;;1.57;;
20334;SDS011;10325;51.468;5.804;2022-07-03T05:05:42;2.90;;;1.67;;
20334;SDS011;10325;51.468;5.804;2022-07-03T05:08:12;1.63;;;1.50;;
20334;SDS011;10325;51.468;5.804;2022-07-03T05:10:47;1.63;;;1.20;;
20334;SDS011;10325;51.468;5.804;2022-07-03T05:13:18;6.33;;;1.77;;
20334;SDS011;10325;51.468;5.804;2022-07-03T05:15:49;2.13;;;1.57;;
20334;SDS011;10325;51.468;5.804;2022-07-03T05:18:18;1.43;;;1.33;;
20334;SDS011;10325;51.468;5.804;2022-07-03T05:20:48;1.33;;;1.23;;
20334;SDS011;10325;51.468;5.804;2022-07-03T05:23:19;5.13;;;1.73;;
20334;SDS011;10325;51.468;5.804;2022-07-03T05:25:51;1.73;;;1.50;;
20334;SDS011;10325;51.468;5.804;2022-07-03T05:28:24;1.70;;;1.40;;
20334;SDS011;10325;51.468;5.804;2022-07-03T05:30:52;1.77;;;1.30;;
20334;SDS011;10325;51.468;5.804;2022-07-03T05:33:25;1.33;;;1.17;;
20334;SDS011;10325;51.468;5.804;2022-07-03T05:36:10;2.23;;;1.53;;
20334;SDS011;10325;51.468;5.804;2022-07-03T05:38:40;1.80;;;1.20;;
20334;SDS011;10325;51.468;5.804;2022-07-03T05:41:29;2.20;;;1.70;;
20334;SDS011;10325;51.468;5.804;2022-07-03T05:43:59;1.63;;;1.30;;
20334;SDS011;10325;51.468;5.804;2022-07-03T05:46:31;1.40;;;1.20;;
20334;SDS011;10325;51.468;5.804;2022-07-03T05:49:00;1.60;;;1.50;;
20334;SDS011;10325;51.468;5.804;2022-07-03T05:51:31;1.77;;;1.30;;
20334;SDS011;10325;51.468;5.804;2022-07-03T05:54:03;1.43;;;1.33;;
20334;SDS011;10325;51.468;5.804;2022-07-03T05:56:32;1.07;;;1.07;;
20334;SDS011;10325;51.468;5.804;2022-07-03T05:59:05;1.43;;;1.33;;
20334;SDS011;10325;51.468;5.804;2022-07-03T06:01:36;1.30;;;1.03;;
20334;SDS011;10325;51.468;5.804;2022-07-03T06:04:10;1.20;;;1.10;;
20334;SDS011;10325;51.468;5.804;2022-07-03T06:06:40;1.53;;;1.20;;
20334;SDS011;10325;51.468;5.804;2022-07-03T06:09:12;1.27;;;1.17;;
20334;SDS011;10325;51.468;5.804;2022-07-03T06:11:43;1.30;;;1.20;;
20334;SDS011;10325;51.468;5.804;2022-07-03T06:14:17;1.33;;;1.23;;
20334;SDS011;10325;51.468;5.804;2022-07-03T06:16:44;1.20;;;1.10;;
20334;SDS011;10325;51.468;5.804;2022-07-03T06:19:18;1.47;;;1.17;;
20334;SDS011;10325;51.468;5.804;2022-07-03T06:21:47;1.93;;;1.00;;
20334;SDS011;10325;51.468;5.804;2022-07-03T06:24:19;1.30;;;1.20;;
20334;SDS011;10325;51.468;5.804;2022-07-03T06:26:49;1.40;;;1.30;;
20334;SDS011;10325;51.468;5.804;2022-07-03T06:29:19;1.47;;;1.13;;
20334;SDS011;10325;51.468;5.804;2022-07-03T06:31:51;1.20;;;1.10;;
20334;SDS011;10325;51.468;5.804;2022-07-03T06:34:21;1.50;;;1.27;;
20334;SDS011;10325;51.468;5.804;2022-07-03T06:36:52;1.60;;;1.13;;
20334;SDS011;10325;51.468;5.804;2022-07-03T06:39:25;1.07;;;1.07;;
20334;SDS011;10325;51.468;5.804;2022-07-03T06:41:53;1.30;;;1.10;;
20334;SDS011;10325;51.468;5.804;2022-07-03T06:44:26;1.40;;;1.30;;
20334;SDS011;10325;51.468;5.804;2022-07-03T06:46:55;1.10;;;1.00;;
20334;SDS011;10325;51.468;5.804;2022-07-03T06:49:24;1.23;;;1.07;;
20334;SDS011;10325;51.468;5.804;2022-07-03T06:51:53;1.67;;;1.20;;
20334;SDS011;10325;51.468;5.804;2022-07-03T06:54:23;1.33;;;1.07;;
20334;SDS011;10325;51.468;5.804;2022-07-03T06:56:54;1.60;;;1.07;;
20334;SDS011;10325;51.468;5.804;2022-07-03T06:59:25;1.37;;;1.20;;
20334;SDS011;10325;51.468;5.804;2022-07-03T07:01:56;1.40;;;1.07;;
20334;SDS011;10325;51.468;5.804;2022-07-03T07:04:27;2.07;;;1.37;;
20334;SDS011;10325;51.468;5.804;2022-07-03T07:06:59;0.93;;;0.90;;
20334;SDS011;10325;51.468;5.804;2022-07-03T07:09:28;1.63;;;1.07;;
20334;SDS011;10325;51.468;5.804;2022-07-03T07:11:59;1.30;;;0.97;;
20334;SDS011;10325;51.468;5.804;2022-07-03T07:14:31;0.90;;;0.90;;
20334;SDS011;10325;51.468;5.804;2022-07-03T07:17:02;2.43;;;1.20;;
20334;SDS011;10325;51.468;5.804;2022-07-03T07:19:34;1.33;;;1.00;;
20334;SDS011;10325;51.468;5.804;2022-07-03T07:22:03;1.47;;;1.00;;
20334;SDS011;10325;51.468;5.804;2022-07-03T07:24:35;1.83;;;1.30;;
20334;SDS011;10325;51.468;5.804;2022-07-03T07:27:06;1.00;;;1.00;;
20334;SDS011;10325;51.468;5.804;2022-07-03T07:29:38;1.40;;;1.00;;
20334;SDS011;10325;51.468;5.804;2022-07-03T07:32:09;1.70;;;1.10;;
20334;SDS011;10325;51.468;5.804;2022-07-03T07:34:40;1.27;;;0.97;;
20334;SDS011;10325;51.468;5.804;2022-07-03T07:37:11;1.53;;;1.13;;
20334;SDS011;10325;51.468;5.804;2022-07-03T07:39:43;1.57;;;1.00;;
20334;SDS011;10325;51.468;5.804;2022-07-03T07:42:14;1.20;;;1.00;;
20334;SDS011;10325;51.468;5.804;2022-07-03T07:44:49;0.93;;;0.80;;
20334;SDS011;10325;51.468;5.804;2022-07-03T07:47:17;0.97;;;0.80;;
20334;SDS011;10325;51.468;5.804;2022-07-03T07:49:48;1.27;;;0.80;;
20334;SDS011;10325;51.468;5.804;2022-07-03T07:52:18;1.10;;;0.80;;
20334;SDS011;10325;51.468;5.804;2022-07-03T07:54:52;1.83;;;0.80;;
20334;SDS011;10325;51.468;5.804;2022-07-03T07:57:24;1.60;;;1.20;;
20334;SDS011;10325;51.468;5.804;2022-07-03T07:59:58;1.20;;;1.10;;
20334;SDS011;10325;51.468;5.804;2022-07-03T08:02:30;1.57;;;1.00;;
20334;SDS011;10325;51.468;5.804;2022-07-03T08:05:20;1.03;;;0.87;;
20334;SDS011;10325;51.468;5.804;2022-07-03T08:08:10;1.37;;;0.90;;
20334;SDS011;10325;51.468;5.804;2022-07-03T08:10:45;1.30;;;0.80;;
20334;SDS011;10325;51.468;5.804;2022-07-03T08:13:17;0.80;;;0.80;;
20334;SDS011;10325;51.468;5.804;2022-07-03T08:15:52;1.17;;;0.90;;
20334;SDS011;10325;51.468;5.804;2022-07-03T08:18:23;1.40;;;0.80;;
20334;SDS011;10325;51.468;5.804;2022-07-03T08:20:59;1.97;;;0.87;;
20334;SDS011;10325;51.468;5.804;2022-07-03T08:23:28;0.83;;;0.80;;
20334;SDS011;10325;51.468;5.804;2022-07-03T08:25:58;1.20;;;0.83;;
20334;SDS011;10325;51.468;5.804;2022-07-03T08:28:29;0.80;;;0.80;;
20334;SDS011;10325;51.468;5.804;2022-07-03T08:30:59;2.27;;;1.03;;
20334;SDS011;10325;51.468;5.804;2022-07-03T08:33:32;0.90;;;0.70;;
20334;SDS011;10325;51.468;5.804;2022-07-03T08:36:05;1.83;;;0.90;;
20334;SDS011;10325;51.468;5.804;2022-07-03T08:38:38;1.10;;;0.80;;
20334;SDS011;10325;51.468;5.804;2022-07-03T08:41:10;1.73;;;1.00;;
20334;SDS011;10325;51.468;5.804;2022-07-03T08:43:42;0.80;;;0.80;;
20334;SDS011;10325;51.468;5.804;2022-07-03T08:46:15;1.23;;;0.87;;
20334;SDS011;10325;51.468;5.804;2022-07-03T08:48:46;0.90;;;0.90;;
20334;SDS011;10325;51.468;5.804;2022-07-03T08:51:19;2.00;;;0.90;;
20334;SDS011;10325;51.468;5.804;2022-07-03T08:53:52;2.23;;;0.90;;
20334;SDS011;10325;51.468;5.804;2022-07-03T08:56:22;1.17;;;0.90;;
20334;SDS011;10325;51.468;5.804;2022-07-03T08:58:56;0.80;;;0.80;;
20334;SDS011;10325;51.468;5.804;2022-07-03T09:01:26;1.00;;;0.90;;
20334;SDS011;10325;51.468;5.804;2022-07-03T09:03:58;1.30;;;1.07;;
20334;SDS011;10325;51.468;5.804;2022-07-03T09:06:30;1.30;;;0.87;;
20334;SDS011;10325;51.468;5.804;2022-07-03T09:09:22;3.43;;;1.03;;
20334;SDS011;10325;51.468;5.804;2022-07-03T09:11:53;1.33;;;1.00;;
20334;SDS011;10325;51.468;5.804;2022-07-03T09:14:24;1.63;;;1.20;;
20334;SDS011;10325;51.468;5.804;2022-07-03T09:16:55;3.00;;;1.50;;
20334;SDS011;10325;51.468;5.804;2022-07-03T09:19:45;1.30;;;1.20;;
20334;SDS011;10325;51.468;5.804;2022-07-03T09:22:28;2.33;;;1.13;;
20334;SDS011;10325;51.468;5.804;2022-07-03T09:25:11;1.57;;;1.13;;
20334;SDS011;10325;51.468;5.804;2022-07-03T09:27:50;5.13;;;1.73;;
20334;SDS011;10325;51.468;5.804;2022-07-03T09:30:36;2.00;;;1.40;;
20334;SDS011;10325;51.468;5.804;2022-07-03T09:33:09;1.97;;;1.60;;
20334;SDS011;10325;51.468;5.804;2022-07-03T09:35:39;2.23;;;1.60;;
20334;SDS011;10325;51.468;5.804;2022-07-03T09:38:31;2.37;;;1.43;;
20334;SDS011;10325;51.468;5.804;2022-07-03T09:40:58;2.20;;;1.40;;
20334;SDS011;10325;51.468;5.804;2022-07-03T09:43:30;2.07;;;1.40;;
20334;SDS011;10325;51.468;5.804;2022-07-03T09:46:03;3.33;;;1.40;;
20334;SDS011;10325;51.468;5.804;2022-07-03T09:48:40;2.13;;;1.60;;
20334;SDS011;10325;51.468;5.804;2022-07-03T09:51:23;2.00;;;1.40;;
20334;SDS011;10325;51.468;5.804;2022-07-03T09:54:00;1.37;;;1.23;;
20334;SDS011;10325;51.468;5.804;2022-07-03T09:56:38;1.33;;;1.23;;
20334;SDS011;10325;51.468;5.804;2022-07-03T09:59:11;2.03;;;1.40;;
20334;SDS011;10325;51.468;5.804;2022-07-03T10:01:44;2.60;;;1.53;;
20334;SDS011;10325;51.468;5.804;2022-07-03T10:04:23;3.17;;;1.90;;
20334;SDS011;10325;51.468;5.804;2022-07-03T10:06:58;2.40;;;1.40;;
20334;SDS011;10325;51.468;5.804;2022-07-03T10:09:29;1.40;;;1.27;;
20334;SDS011;10325;51.468;5.804;2022-07-03T10:12:03;2.23;;;1.20;;
20334;SDS011;10325;51.468;5.804;2022-07-03T10:14:33;4.20;;;1.43;;
20334;SDS011;10325;51.468;5.804;2022-07-03T10:17:04;3.83;;;1.50;;
20334;SDS011;10325;51.468;5.804;2022-07-03T10:19:47;3.53;;;1.73;;
20334;SDS011;10325;51.468;5.804;2022-07-03T10:22:19;3.00;;;1.73;;
20334;SDS011;10325;51.468;5.804;2022-07-03T10:25:07;5.57;;;1.80;;
20334;SDS011;10325;51.468;5.804;2022-07-03T10:27:40;2.97;;;1.97;;
20334;SDS011;10325;51.468;5.804;2022-07-03T10:30:14;3.27;;;1.63;;
20334;SDS011;10325;51.468;5.804;2022-07-03T10:32:44;3.07;;;2.03;;
20334;SDS011;10325;51.468;5.804;2022-07-03T10:35:14;9.20;;;1.90;;
20334;SDS011;10325;51.468;5.804;2022-07-03T10:38:48;2.70;;;1.57;;
20334;SDS011;10325;51.468;5.804;2022-07-03T10:44:01;5.23;;;2.30;;
20334;SDS011;10325;51.468;5.804;2022-07-03T10:46:52;4.57;;;1.80;;
20334;SDS011;10325;51.468;5.804;2022-07-03T10:49:29;3.00;;;1.77;;
20334;SDS011;10325;51.468;5.804;2022-07-03T10:52:00;2.23;;;1.60;;
20334;SDS011;10325;51.468;5.804;2022-07-03T10:54:32;3.87;;;1.63;;
20334;SDS011;10325;51.468;5.804;2022-07-03T10:57:09;3.03;;;1.73;;
20334;SDS011;10325;51.468;5.804;2022-07-03T11:02:39;2.17;;;1.20;;
20334;SDS011;10325;51.468;5.804;2022-07-03T11:05:12;2.80;;;1.53;;
20334;SDS011;10325;51.468;5.804;2022-07-03T11:10:30;2.80;;;1.50;;
20334;SDS011;10325;51.468;5.804;2022-07-03T11:13:05;2.03;;;1.50;;
20334;SDS011;10325;51.468;5.804;2022-07-03T11:15:49;2.00;;;1.40;;
20334;SDS011;10325;51.468;5.804;2022-07-03T11:18:34;3.63;;;1.97;;
20334;SDS011;10325;51.468;5.804;2022-07-03T11:21:21;2.37;;;1.33;;
20334;SDS011;10325;51.468;5.804;2022-07-03T11:26:40;1.87;;;1.30;;
20334;SDS011;10325;51.468;5.804;2022-07-03T11:29:30;2.20;;;1.37;;
20334;SDS011;10325;51.468;5.804;2022-07-03T11:32:23;1.57;;;1.27;;
20334;SDS011;10325;51.468;5.804;2022-07-03T11:34:49;2.93;;;1.20;;
20334;SDS011;10325;51.468;5.804;2022-07-03T11:37:20;1.97;;;1.37;;
20334;SDS011;10325;51.468;5.804;2022-07-03T11:39:50;2.53;;;1.63;;
20334;SDS011;10325;51.468;5.804;2022-07-03T11:42:34;1.67;;;0.97;;
20334;SDS011;10325;51.468;5.804;2022-07-03T11:45:04;2.07;;;1.30;;
20334;SDS011;10325;51.468;5.804;2022-07-03T11:47:35;2.17;;;1.20;;
20334;SDS011;10325;51.468;5.804;2022-07-03T11:50:05;2.00;;;1.17;;
20334;SDS011;10325;51.468;5.804;2022-07-03T11:52:40;2.93;;;1.30;;
20334;SDS011;10325;51.468;5.804;2022-07-03T11:55:10;1.43;;;1.07;;
20334;SDS011;10325;51.468;5.804;2022-07-03T11:57:48;1.23;;;1.10;;
20334;SDS011;10325;51.468;5.804;2022-07-03T12:00:29;2.50;;;1.20;;
20334;SDS011;10325;51.468;5.804;2022-07-03T12:03:05;1.20;;;1.00;;
20334;SDS011;10325;51.468;5.804;2022-07-03T12:05:34;1.73;;;1.30;;
20334;SDS011;10325;51.468;5.804;2022-07-03T12:08:05;1.50;;;0.93;;
20334;SDS011;10325;51.468;5.804;2022-07-03T12:10:38;1.67;;;1.20;;
20334;SDS011;10325;51.468;5.804;2022-07-03T12:13:21;1.27;;;1.07;;
20334;SDS011;10325;51.468;5.804;2022-07-03T12:16:02;1.03;;;0.80;;
20334;SDS011;10325;51.468;5.804;2022-07-03T12:18:53;1.30;;;1.20;;
20334;SDS011;10325;51.468;5.804;2022-07-03T12:21:25;1.00;;;0.90;;
20334;SDS011;10325;51.468;5.804;2022-07-03T12:24:14;1.17;;;1.00;;
20334;SDS011;10325;51.468;5.804;2022-07-03T12:26:44;2.10;;;0.93;;
20334;SDS011;10325;51.468;5.804;2022-07-03T12:29:25;1.40;;;1.00;;
20334;SDS011;10325;51.468;5.804;2022-07-03T12:32:00;1.93;;;1.07;;
20334;SDS011;10325;51.468;5.804;2022-07-03T12:34:32;1.20;;;1.07;;
20334;SDS011;10325;51.468;5.804;2022-07-03T12:37:09;1.37;;;1.03;;
20334;SDS011;10325;51.468;5.804;2022-07-03T12:39:48;1.60;;;1.00;;
20334;SDS011;10325;51.468;5.804;2022-07-03T12:42:22;1.07;;;0.80;;
20334;SDS011;10325;51.468;5.804;2022-07-03T12:47:28;1.27;;;1.07;;
20334;SDS011;10325;51.468;5.804;2022-07-03T12:50:04;1.07;;;1.00;;
20334;SDS011;10325;51.468;5.804;2022-07-03T12:55:26;1.40;;;0.80;;
20334;SDS011;10325;51.468;5.804;2022-07-03T12:58:15;1.00;;;0.90;;
20334;SDS011;10325;51.468;5.804;2022-07-03T13:01:04;2.97;;;1.10;;
20334;SDS011;10325;51.468;5.804;2022-07-03T13:03:35;3.73;;;1.20;;
20334;SDS011;10325;51.468;5.804;2022-07-03T13:06:17;5.23;;;1.20;;
20334;SDS011;10325;51.468;5.804;2022-07-03T13:09:04;4.80;;;1.17;;
20334;SDS011;10325;51.468;5.804;2022-07-03T13:11:36;2.60;;;1.00;;
20334;SDS011;10325;51.468;5.804;2022-07-03T13:14:14;2.70;;;1.13;;
20334;SDS011;10325;51.468;5.804;2022-07-03T13:16:46;2.77;;;0.90;;
20334;SDS011;10325;51.468;5.804;2022-07-03T13:19:27;2.27;;;1.00;;
20334;SDS011;10325;51.468;5.804;2022-07-03T13:21:57;1.57;;;0.80;;
20334;SDS011;10325;51.468;5.804;2022-07-03T13:24:29;2.13;;;1.00;;
20334;SDS011;10325;51.468;5.804;2022-07-03T13:27:02;1.20;;;0.90;;
20334;SDS011;10325;51.468;5.804;2022-07-03T13:29:38;1.33;;;0.77;;
20334;SDS011;10325;51.468;5.804;2022-07-03T13:32:10;1.73;;;1.00;;
20334;SDS011;10325;51.468;5.804;2022-07-03T13:34:41;1.03;;;0.83;;
20334;SDS011;10325;51.468;5.804;2022-07-03T13:37:10;2.03;;;0.70;;
20334;SDS011;10325;51.468;5.804;2022-07-03T13:39:41;1.30;;;0.90;;
20334;SDS011;10325;51.468;5.804;2022-07-03T13:42:12;2.10;;;1.00;;
20334;SDS011;10325;51.468;5.804;2022-07-03T13:44:40;1.53;;;0.80;;
20334;SDS011;10325;51.468;5.804;2022-07-03T13:47:11;1.27;;;0.87;;
20334;SDS011;10325;51.468;5.804;2022-07-03T13:49:49;1.50;;;0.70;;
20334;SDS011;10325;51.468;5.804;2022-07-03T13:52:18;1.43;;;0.97;;
20334;SDS011;10325;51.468;5.804;2022-07-03T13:54:48;0.80;;;0.80;;
20334;SDS011;10325;51.468;5.804;2022-07-03T13:57:20;1.07;;;0.73;;
20334;SDS011;10325;51.468;5.804;2022-07-03T13:59:54;1.87;;;1.10;;
20334;SDS011;10325;51.468;5.804;2022-07-03T14:02:26;1.07;;;0.77;;
20334;SDS011;10325;51.468;5.804;2022-07-03T14:04:59;2.00;;;0.80;;
20334;SDS011;10325;51.468;5.804;2022-07-03T14:07:29;1.23;;;0.80;;
20334;SDS011;10325;51.468;5.804;2022-07-03T14:10:02;1.27;;;0.87;;
20334;SDS011;10325;51.468;5.804;2022-07-03T14:12:31;1.00;;;0.80;;
20334;SDS011;10325;51.468;5.804;2022-07-03T14:15:03;1.87;;;1.10;;
20334;SDS011;10325;51.468;5.804;2022-07-03T14:17:36;1.57;;;1.00;;
20334;SDS011;10325;51.468;5.804;2022-07-03T14:20:10;1.30;;;0.90;;
20334;SDS011;10325;51.468;5.804;2022-07-03T14:22:42;1.13;;;0.90;;
20334;SDS011;10325;51.468;5.804;2022-07-03T14:25:17;0.80;;;0.80;;
20334;SDS011;10325;51.468;5.804;2022-07-03T14:27:48;1.80;;;0.97;;
20334;SDS011;10325;51.468;5.804;2022-07-03T14:30:38;1.20;;;1.10;;
20334;SDS011;10325;51.468;5.804;2022-07-03T14:33:28;1.30;;;1.20;;
20334;SDS011;10325;51.468;5.804;2022-07-03T14:35:59;1.40;;;1.13;;
20334;SDS011;10325;51.468;5.804;2022-07-03T14:38:34;2.40;;;1.07;;
20334;SDS011;10325;51.468;5.804;2022-07-03T14:41:04;1.93;;;1.50;;
20334;SDS011;10325;51.468;5.804;2022-07-03T14:43:35;1.50;;;1.03;;
20334;SDS011;10325;51.468;5.804;2022-07-03T14:46:08;3.90;;;1.30;;
20334;SDS011;10325;51.468;5.804;2022-07-03T14:48:41;7.70;;;1.30;;
20334;SDS011;10325;51.468;5.804;2022-07-03T14:51:12;6.23;;;1.30;;
20334;SDS011;10325;51.468;5.804;2022-07-03T14:53:43;2.23;;;0.90;;
20334;SDS011;10325;51.468;5.804;2022-07-03T14:56:17;1.60;;;0.97;;
20334;SDS011;10325;51.468;5.804;2022-07-03T14:58:53;1.10;;;1.00;;
20334;SDS011;10325;51.468;5.804;2022-07-03T15:01:29;3.80;;;1.17;;
20334;SDS011;10325;51.468;5.804;2022-07-03T15:05:02;2.03;;;1.10;;
20334;SDS011;10325;51.468;5.804;2022-07-03T15:07:07;3.17;;;0.97;;
20334;SDS011;10325;51.468;5.804;2022-07-03T15:09:37;1.37;;;0.90;;
20334;SDS011;10325;51.468;5.804;2022-07-03T15:12:09;4.20;;;1.00;;
20334;SDS011;10325;51.468;5.804;2022-07-03T15:14:56;1.53;;;0.90;;
20334;SDS011;10325;51.468;5.804;2022-07-03T15:17:28;1.17;;;0.77;;
20334;SDS011;10325;51.468;5.804;2022-07-03T15:19:59;1.97;;;0.90;;
20334;SDS011;10325;51.468;5.804;2022-07-03T15:22:31;1.73;;;1.00;;
20334;SDS011;10325;51.468;5.804;2022-07-03T15:25:01;1.43;;;0.90;;
20334;SDS011;10325;51.468;5.804;2022-07-03T15:27:31;1.93;;;1.00;;
20334;SDS011;10325;51.468;5.804;2022-07-03T15:30:06;1.20;;;0.87;;
20334;SDS011;10325;51.468;5.804;2022-07-03T15:32:39;1.90;;;1.00;;
20334;SDS011;10325;51.468;5.804;2022-07-03T15:35:14;0.80;;;0.80;;
20334;SDS011;10325;51.468;5.804;2022-07-03T15:37:49;1.27;;;1.00;;
20334;SDS011;10325;51.468;5.804;2022-07-03T15:40:28;1.20;;;0.97;;
20334;SDS011;10325;51.468;5.804;2022-07-03T15:51:15;1.03;;;0.93;;
20334;SDS011;10325;51.468;5.804;2022-07-03T15:54:04;1.00;;;0.90;;
20334;SDS011;10325;51.468;5.804;2022-07-03T15:56:41;1.43;;;1.00;;
20334;SDS011;10325;51.468;5.804;2022-07-03T15:59:13;1.23;;;0.90;;
20334;SDS011;10325;51.468;5.804;2022-07-03T16:01:53;1.47;;;1.10;;
20334;SDS011;10325;51.468;5.804;2022-07-03T16:07:31;1.37;;;1.17;;
20334;SDS011;10325;51.468;5.804;2022-07-03T16:10:12;1.30;;;1.00;;
20334;SDS011;10325;51.468;5.804;2022-07-03T16:12:42;2.00;;;1.60;;
20334;SDS011;10325;51.468;5.804;2022-07-03T16:15:15;1.47;;;1.30;;